createdAt,value
2022-12-06T00:01:37.463Z,5.1
2022-12-06T00:04:07.381Z,4.76
2022-12-06T00:06:37.382Z,6.65
2022-12-06T00:09:07.407Z,5.55
2022-12-06T00:11:37.437Z,4.05
2022-12-06T00:14:07.483Z,3.51
2022-12-06T00:16:37.553Z,3.62
2022-12-06T00:19:07.486Z,3.11
2022-12-06T00:21:37.528Z,3.67
2022-12-06T00:24:07.565Z,4.22
2022-12-06T00:26:37.577Z,3.87
2022-12-06T00:31:37.662Z,4.48
2022-12-06T00:34:07.645Z,4.37
2022-12-06T00:36:37.665Z,4.07
2022-12-06T00:39:07.691Z,4.28
2022-12-06T00:41:37.754Z,4.01
2022-12-06T00:44:07.738Z,4.13
2022-12-06T00:46:37.773Z,3.16
2022-12-06T00:49:07.789Z,4.06
2022-12-06T00:54:07.847Z,5.29
2022-12-06T00:56:37.856Z,5.26
2022-12-06T00:59:07.879Z,4.65
2022-12-06T01:01:38.070Z,4.83
2022-12-06T01:04:07.933Z,6.13
2022-12-06T01:14:08.035Z,4.71
2022-12-06T01:16:38.111Z,5.06
2022-12-06T01:19:08.062Z,5.32
2022-12-06T01:24:08.128Z,5.56
2022-12-06T01:29:08.176Z,3.63
2022-12-06T01:31:39.261Z,4.21
2022-12-06T01:34:08.207Z,3.9
2022-12-06T01:36:38.223Z,4.08
2022-12-06T01:41:38.287Z,5.17
2022-12-06T01:44:08.304Z,4.77
2022-12-06T01:46:38.378Z,6.33
2022-12-06T01:49:08.336Z,5.27
2022-12-06T01:54:08.382Z,6.21
2022-12-06T01:56:38.409Z,5.38
2022-12-06T01:59:08.435Z,8.06
2022-12-06T02:01:38.552Z,6.07
2022-12-06T02:06:38.513Z,4.18
2022-12-06T02:11:38.578Z,4.36
2022-12-06T02:19:08.644Z,3.91
2022-12-06T02:21:38.683Z,4.81
2022-12-06T02:24:08.700Z,5.2
2022-12-06T02:26:38.689Z,5.52
2022-12-06T02:29:08.718Z,5.13
2022-12-06T02:31:38.742Z,4.53
2022-12-06T02:34:08.758Z,7.2
2022-12-06T02:36:38.803Z,6.14
2022-12-06T02:39:08.812Z,6.4
2022-12-06T02:41:38.832Z,7.48
2022-12-06T02:44:08.859Z,6.81
2022-12-06T02:46:38.920Z,7.93
2022-12-06T02:49:08.910Z,7.38
2022-12-06T02:51:38.932Z,5.88
2022-12-06T02:54:08.946Z,4.7
2022-12-06T02:59:09.002Z,8.19
2022-12-06T03:01:39.075Z,6.33
2022-12-06T03:04:09.086Z,6.29
2022-12-06T03:09:09.123Z,5.89
2022-12-06T03:11:39.128Z,5.7
2022-12-06T03:14:13.298Z,4.85
2022-12-06T03:16:39.157Z,4.35
2022-12-06T03:19:09.202Z,3.94
2022-12-06T03:21:39.215Z,3.61
2022-12-06T03:24:09.240Z,3.83
2022-12-06T03:26:39.244Z,3.75
2022-12-06T03:29:09.292Z,4.77
2022-12-06T03:31:39.367Z,5.13
2022-12-06T03:34:09.318Z,6.06
2022-12-06T03:36:39.356Z,6.2
2022-12-06T03:41:39.417Z,5.2
2022-12-06T03:44:09.411Z,9.25
2022-12-06T03:46:39.597Z,8.77
2022-12-06T03:49:09.478Z,6.16
2022-12-06T03:51:39.503Z,5.98
2022-12-06T03:54:09.525Z,4.42
2022-12-06T03:56:39.528Z,4.14
2022-12-06T03:59:09.580Z,5.02
2022-12-06T04:04:09.706Z,6.79
2022-12-06T04:06:39.633Z,5.37
2022-12-06T04:09:09.673Z,4.85
2022-12-06T04:14:09.700Z,4.51
2022-12-06T04:16:39.736Z,3.77
2022-12-06T04:21:39.791Z,3.23
2022-12-06T04:24:09.803Z,2.69
2022-12-06T04:26:39.828Z,3.52
2022-12-06T04:31:39.935Z,3.52
2022-12-06T04:34:09.885Z,4.06
2022-12-06T04:36:39.917Z,3.83
2022-12-06T04:39:09.943Z,3.9
2022-12-06T04:41:39.965Z,2.97
2022-12-06T04:44:09.998Z,3.42
2022-12-06T04:46:40.129Z,3.12
2022-12-06T04:51:40.091Z,2.98
2022-12-06T04:54:10.075Z,2.52
2022-12-06T04:56:40.124Z,3.79
2022-12-06T04:59:10.149Z,3.34
2022-12-06T05:01:40.167Z,4.13
2022-12-06T05:04:10.254Z,3.3
2022-12-06T05:06:40.221Z,3.82
2022-12-06T05:09:10.262Z,3.07
2022-12-06T05:11:40.257Z,6.6
2022-12-06T05:14:10.278Z,4.26
2022-12-06T05:16:40.359Z,5.52
2022-12-06T05:19:10.329Z,4.14
2022-12-06T05:21:40.349Z,3.65
2022-12-06T05:24:10.364Z,3.92
2022-12-06T05:26:40.406Z,3.6
2022-12-06T05:29:10.421Z,3.05
2022-12-06T05:34:10.457Z,2.95
2022-12-06T05:39:10.526Z,4.26
2022-12-06T05:41:40.532Z,3.81
2022-12-06T05:44:10.561Z,4.38
2022-12-06T05:46:40.599Z,5.1
2022-12-06T05:49:10.626Z,4.64
2022-12-06T05:51:40.619Z,4.08
2022-12-06T05:54:10.653Z,4.53
2022-12-06T05:56:40.678Z,2.96
2022-12-06T05:59:10.708Z,3.7
2022-12-06T06:01:40.818Z,2.87
2022-12-06T06:06:40.791Z,3.58
2022-12-06T06:09:10.796Z,3.77
2022-12-06T06:11:40.823Z,4.39
2022-12-06T06:14:10.850Z,6.05
2022-12-06T06:19:10.884Z,3.71
2022-12-06T06:21:40.915Z,3.97
2022-12-06T06:24:10.938Z,2.81
2022-12-06T06:26:40.962Z,2.57
2022-12-06T06:29:10.976Z,3.2
2022-12-06T06:31:41.070Z,2.61
2022-12-06T06:34:11.045Z,3.02
2022-12-06T06:36:45.544Z,2.63
2022-12-06T06:39:11.075Z,2.63
2022-12-06T06:41:41.089Z,2.97
2022-12-06T06:49:11.166Z,2.02
2022-12-06T06:51:41.203Z,2.84
2022-12-06T06:54:11.221Z,3.87
2022-12-06T06:59:11.261Z,4.2
2022-12-06T07:04:11.315Z,3.49
2022-12-06T07:09:11.350Z,6.63
2022-12-06T07:11:41.397Z,8.61
2022-12-06T07:14:11.419Z,7.11
2022-12-06T07:16:41.491Z,4.78
2022-12-06T07:19:11.452Z,3.8
2022-12-06T07:21:41.489Z,4.72
2022-12-06T07:24:11.510Z,3.14
2022-12-06T07:26:41.541Z,5.92
2022-12-06T07:29:11.542Z,6.6
2022-12-06T07:34:11.603Z,6.8
2022-12-06T07:36:41.637Z,4.68
2022-12-06T07:39:14.448Z,3.44
2022-12-06T07:41:41.671Z,2.69
2022-12-06T07:44:11.709Z,2.37
2022-12-06T07:49:11.745Z,4.48
2022-12-06T07:54:11.796Z,3.7
2022-12-06T07:56:41.798Z,3.91
2022-12-06T08:01:41.954Z,2.75
2022-12-06T08:04:11.912Z,3.24
2022-12-06T08:06:41.907Z,3.55
2022-12-06T08:09:11.944Z,3.64
2022-12-06T08:11:41.972Z,5.36
2022-12-06T08:14:11.989Z,4.35
2022-12-06T08:19:12.013Z,3.93
2022-12-06T08:21:42.064Z,5.02
2022-12-06T08:24:12.073Z,3.33
2022-12-06T08:29:12.142Z,3.35
2022-12-06T08:31:42.253Z,2.47
2022-12-06T08:34:12.173Z,4.15
2022-12-06T08:36:42.193Z,4.15
2022-12-06T08:39:12.239Z,4.07
2022-12-06T08:41:42.279Z,3.46
2022-12-06T08:44:12.276Z,3.06
2022-12-06T08:46:42.328Z,2.24
2022-12-06T08:49:12.310Z,3.15
2022-12-06T08:51:42.328Z,4.01
2022-12-06T08:54:12.374Z,3.02
2022-12-06T08:56:42.378Z,2.53
2022-12-06T08:59:12.397Z,2.99
2022-12-06T09:01:42.502Z,2.27
2022-12-06T09:04:12.514Z,2.98
2022-12-06T09:06:42.464Z,3.74
2022-12-06T09:11:42.532Z,2.65
2022-12-06T09:14:16.398Z,1.98
2022-12-06T09:16:42.574Z,2.11
2022-12-06T09:19:12.582Z,3.05
2022-12-06T09:21:42.627Z,2.96
2022-12-06T09:24:12.624Z,2.56
2022-12-06T09:26:42.651Z,2.73
2022-12-06T09:29:12.685Z,2.12
2022-12-06T09:31:42.770Z,3.12
2022-12-06T09:39:12.781Z,2.62
2022-12-06T09:41:42.821Z,2.91
2022-12-06T09:44:12.833Z,2.14
2022-12-06T09:46:42.968Z,2.95
2022-12-06T09:49:12.880Z,6.13
2022-12-06T09:51:42.894Z,4.57
2022-12-06T09:54:12.909Z,3.54
2022-12-06T09:59:12.964Z,5.91
2022-12-06T10:01:43.023Z,3.94
2022-12-06T10:06:43.028Z,3.57
2022-12-06T10:09:13.130Z,3.94
2022-12-06T10:11:43.100Z,2.96
2022-12-06T10:16:43.211Z,2.47
2022-12-06T10:19:13.157Z,1.59
2022-12-06T10:21:43.183Z,1.83
2022-12-06T10:24:13.188Z,1.96
2022-12-06T10:31:43.353Z,3.7
2022-12-06T10:34:13.286Z,4.58
2022-12-06T10:36:43.321Z,3.08
2022-12-06T10:39:13.363Z,3.45
2022-12-06T10:41:43.353Z,2.17
2022-12-06T10:44:13.376Z,1.68
2022-12-06T10:46:43.512Z,1.79
2022-12-06T10:49:13.452Z,2.69
2022-12-06T10:51:43.457Z,2.3
2022-12-06T10:54:13.466Z,1.62
2022-12-06T10:56:43.526Z,4.03
2022-12-06T10:59:13.535Z,6
2022-12-06T11:01:43.629Z,7.02
2022-12-06T11:04:13.571Z,4.52
2022-12-06T11:06:43.617Z,3.53
2022-12-06T11:09:13.626Z,2.93
2022-12-06T11:11:43.640Z,2.42
2022-12-06T11:14:13.671Z,4.72
2022-12-06T11:16:43.758Z,3.76
2022-12-06T11:21:43.731Z,1.88
2022-12-06T11:24:13.776Z,1.42
2022-12-06T11:26:43.804Z,1.03
2022-12-06T11:29:13.813Z,0.9
2022-12-06T11:31:43.962Z,1.82
2022-12-06T11:34:13.857Z,1.66
2022-12-06T11:36:43.903Z,1.06
2022-12-06T11:44:13.958Z,1.77
2022-12-06T11:46:44.009Z,6.63
2022-12-06T11:49:13.997Z,4.86
2022-12-06T11:51:44.023Z,3.2
2022-12-06T11:54:14.037Z,4
2022-12-06T11:56:44.078Z,2.27
2022-12-06T12:04:14.143Z,1.85
2022-12-06T12:06:44.171Z,1.48
2022-12-06T12:09:14.192Z,3.18
2022-12-06T12:16:44.326Z,8.27
2022-12-06T12:19:14.277Z,6.71
2022-12-06T12:21:44.292Z,4.87
2022-12-06T12:26:44.349Z,2.17
2022-12-06T12:29:14.402Z,2.28
2022-12-06T12:31:44.472Z,2.87
2022-12-06T12:34:14.399Z,3.82
2022-12-06T12:36:44.436Z,3.1
2022-12-06T12:39:14.459Z,2.38
2022-12-06T12:41:44.469Z,1.74
2022-12-06T12:44:36.374Z,2.4
2022-12-06T12:46:44.541Z,1.9
2022-12-06T12:49:14.557Z,1.6
2022-12-06T12:54:14.617Z,2.55
2022-12-06T12:56:44.628Z,2.66
2022-12-06T13:01:44.696Z,2.09
2022-12-06T13:06:44.718Z,2.02
2022-12-06T13:09:14.730Z,2.44
2022-12-06T13:11:44.759Z,2.22
2022-12-06T13:16:44.912Z,2.57
2022-12-06T13:19:14.841Z,2.9
2022-12-06T13:21:44.855Z,2.68
2022-12-06T13:24:14.908Z,2.83
2022-12-06T13:26:44.921Z,2.67
2022-12-06T13:29:14.951Z,1.88
2022-12-06T13:34:14.970Z,3.45
2022-12-06T13:36:45.020Z,2.69
2022-12-06T13:41:45.045Z,3.76
2022-12-06T13:44:15.072Z,3.7
2022-12-06T13:49:15.115Z,4.37
2022-12-06T13:51:45.145Z,3.02
2022-12-06T13:54:15.177Z,5.56
2022-12-06T13:56:45.195Z,3.86
2022-12-06T13:59:15.215Z,3.94
2022-12-06T14:01:45.335Z,5.9
2022-12-06T14:06:45.277Z,3.86
2022-12-06T14:11:45.336Z,3.94
2022-12-06T14:14:15.352Z,4.5
2022-12-06T14:16:45.462Z,3.36
2022-12-06T14:19:15.381Z,6.59
2022-12-06T14:21:45.465Z,4.09
2022-12-06T14:24:15.443Z,3.51
2022-12-06T14:29:15.499Z,5.08
2022-12-06T14:31:45.519Z,4
2022-12-06T14:34:22.586Z,2.78
2022-12-06T14:36:45.571Z,2.6
2022-12-06T14:39:15.592Z,2.3
2022-12-06T14:41:45.616Z,3.41
2022-12-06T14:44:15.646Z,9.93
2022-12-06T14:46:45.729Z,6.49
2022-12-06T14:49:15.680Z,3.86
2022-12-06T14:51:45.733Z,6.14
2022-12-06T14:54:15.742Z,4.09
2022-12-06T14:56:45.752Z,3.96
2022-12-06T14:59:15.775Z,3.02
2022-12-06T15:01:45.814Z,2.67
2022-12-06T15:04:15.888Z,2.68
2022-12-06T15:09:15.871Z,3.99
2022-12-06T15:11:45.902Z,3.79
2022-12-06T15:14:15.971Z,3.32
2022-12-06T15:16:45.940Z,3.12
2022-12-06T15:19:15.968Z,3.72
2022-12-06T15:21:46.014Z,3.26
2022-12-06T15:24:16.013Z,2.68
2022-12-06T15:26:46.042Z,2.9
2022-12-06T15:29:16.081Z,3.94
2022-12-06T15:31:46.150Z,3.43
2022-12-06T15:34:16.113Z,6.38
2022-12-06T15:36:46.155Z,5.25
2022-12-06T15:39:16.160Z,4.77
2022-12-06T15:44:16.223Z,3.44
2022-12-06T15:46:46.283Z,3.61
2022-12-06T15:49:16.251Z,5.76
2022-12-06T15:51:46.277Z,5.48
2022-12-06T15:54:16.298Z,5.82
2022-12-06T15:56:46.328Z,5.28
2022-12-06T16:01:46.405Z,4.45
2022-12-06T16:04:16.391Z,3.76
2022-12-06T16:06:46.422Z,5.89
2022-12-06T16:09:16.432Z,4.92
2022-12-06T16:11:46.464Z,5.35
2022-12-06T16:14:16.488Z,4.35
2022-12-06T16:16:46.569Z,8.7
2022-12-06T16:19:16.539Z,6.6
2022-12-06T16:24:16.642Z,6.23
2022-12-06T16:26:46.594Z,5.09
2022-12-06T16:31:46.906Z,5.9
2022-12-06T16:34:16.656Z,7.02
2022-12-06T16:39:16.789Z,7.49
2022-12-06T16:41:46.754Z,15.86
2022-12-06T16:44:16.750Z,9.65
2022-12-06T16:46:46.905Z,6.91
2022-12-06T16:51:46.834Z,4
2022-12-06T16:56:46.873Z,4.8
2022-12-06T16:59:16.926Z,4.5
2022-12-06T17:01:53.975Z,4.4
2022-12-06T17:06:46.982Z,4.78
2022-12-06T17:09:17.004Z,5.33
2022-12-06T17:11:47.038Z,4.8
2022-12-06T17:14:17.046Z,4.97
2022-12-06T17:21:47.122Z,5.47
2022-12-06T17:29:17.221Z,5.17
2022-12-06T17:31:47.269Z,5.33
2022-12-06T17:34:17.245Z,5.45
2022-12-06T17:36:47.282Z,4.51
2022-12-06T17:39:17.286Z,3.73
2022-12-06T17:44:17.323Z,5.4
2022-12-06T17:46:47.371Z,6.36
2022-12-06T17:54:17.461Z,5.33
2022-12-06T17:56:47.467Z,5.8
2022-12-06T17:59:17.493Z,6.73
2022-12-06T18:06:47.547Z,5.3
2022-12-06T18:09:17.601Z,5.41
2022-12-06T18:11:54.614Z,7.61
2022-12-06T18:14:17.610Z,6.75
2022-12-06T18:19:17.675Z,4.72
2022-12-06T18:21:47.684Z,6.05
2022-12-06T18:24:22.562Z,6.18
2022-12-06T18:26:47.744Z,4.72
2022-12-06T18:34:17.829Z,11.53
2022-12-06T18:36:47.851Z,8.37
2022-12-06T18:39:17.863Z,8.24
2022-12-06T18:49:17.934Z,6.87
2022-12-06T18:54:18.017Z,7.45
2022-12-06T18:56:48.026Z,6.41
2022-12-06T18:59:20.100Z,11.13
2022-12-06T19:09:18.143Z,8.27
2022-12-06T19:11:48.160Z,9.22
2022-12-06T19:14:18.183Z,10.75
2022-12-06T19:16:48.304Z,9.95
2022-12-06T19:21:48.274Z,7.82
2022-12-06T19:24:18.288Z,7.64
2022-12-06T19:26:48.298Z,8.45
2022-12-06T19:31:48.346Z,7.2
2022-12-06T19:34:18.388Z,8.21
2022-12-06T19:36:48.402Z,8.44
2022-12-06T19:41:48.457Z,7.65
2022-12-06T19:44:18.469Z,8.52
2022-12-06T19:46:48.477Z,7.89
2022-12-06T19:49:18.509Z,8.71
2022-12-06T19:54:18.575Z,8.47
2022-12-06T19:56:48.584Z,7.24
2022-12-06T20:06:48.695Z,7.54
2022-12-06T20:09:18.686Z,8.78
2022-12-06T20:11:48.956Z,7.83
2022-12-06T20:21:48.820Z,9.67
2022-12-06T20:24:18.848Z,8.73
2022-12-06T20:31:48.930Z,8.66
2022-12-06T20:34:18.938Z,8.98
2022-12-06T20:36:48.955Z,9.01
2022-12-06T20:39:18.970Z,9.4
2022-12-06T20:44:19.040Z,7.46
2022-12-06T20:46:49.176Z,7.83
2022-12-06T20:49:19.111Z,8.41
2022-12-06T20:51:52.622Z,7.48
2022-12-06T20:56:49.142Z,7.51
2022-12-06T20:59:19.174Z,9.74
2022-12-06T21:01:49.265Z,10.96
2022-12-06T21:04:19.228Z,9.39
2022-12-06T21:09:19.269Z,11.43
2022-12-06T21:11:49.311Z,11.23
2022-12-06T21:14:19.338Z,8.16
2022-12-06T21:19:19.389Z,7.52
2022-12-06T21:21:49.425Z,7.04
2022-12-06T21:29:20.852Z,7.54
2022-12-06T21:31:49.488Z,7.05
2022-12-06T21:34:19.516Z,6.89
2022-12-06T21:36:49.511Z,7.54
2022-12-06T21:39:19.564Z,5.78
2022-12-06T21:41:49.589Z,5.96
2022-12-06T21:44:19.622Z,6.55
2022-12-06T21:49:19.644Z,6.6
2022-12-06T21:51:51.131Z,6.1
2022-12-06T21:54:19.691Z,5.98
2022-12-06T21:56:49.710Z,6.81
2022-12-06T21:59:19.738Z,7.08
2022-12-06T22:01:49.804Z,7.5
2022-12-06T22:06:49.847Z,6.26
2022-12-06T22:09:19.844Z,8.42
2022-12-06T22:11:49.862Z,7.52
2022-12-06T22:14:19.867Z,6.54
2022-12-06T22:16:49.909Z,6.71
2022-12-06T22:19:19.943Z,6.23
2022-12-06T22:21:49.956Z,7.29
2022-12-06T22:24:19.964Z,6.71
2022-12-06T22:26:50.010Z,7.33
2022-12-06T22:29:20.074Z,7.51
2022-12-06T22:31:50.191Z,7.1
2022-12-06T22:34:20.085Z,6.52
2022-12-06T22:36:50.096Z,5.97
2022-12-06T22:39:20.135Z,6.9
2022-12-06T22:41:50.127Z,5.85
2022-12-06T22:44:20.183Z,6.61
2022-12-06T22:46:50.268Z,6.55
2022-12-06T22:49:20.217Z,5.87
2022-12-06T22:51:50.241Z,6.23
2022-12-06T22:54:20.261Z,5.3
2022-12-06T22:59:20.309Z,6.48
2022-12-06T23:01:50.400Z,8.8
2022-12-06T23:04:20.433Z,6.93
2022-12-06T23:06:50.385Z,5.72
2022-12-06T23:09:20.477Z,4.84
2022-12-06T23:11:50.444Z,5.15
2022-12-06T23:14:20.466Z,3.96
2022-12-06T23:16:50.613Z,4.13
2022-12-06T23:21:50.509Z,4.85
2022-12-06T23:24:20.551Z,4.11
2022-12-06T23:31:50.728Z,3.98
2022-12-06T23:34:20.647Z,3.5
2022-12-06T23:36:50.667Z,11.32
2022-12-06T23:41:50.712Z,5.23
2022-12-06T23:44:20.731Z,4.72
2022-12-06T23:46:50.830Z,3.89
2022-12-06T23:49:20.811Z,2.41
2022-12-06T23:51:50.814Z,2.74
2022-12-06T23:56:50.863Z,2.47
2022-12-06T23:59:20.867Z,2.31
